Time;durP1;ratioP1;P1;durP2;ratioP2;P2;SDS_P1;SDS_P2;PMS_P1;PMS_P2;Temp;Humidity;BMP_temperature;BMP_pressure;BME280_temperature;BME280_humidity;BME280_pressure;Samples;Min_cycle;Max_cycle;Signal;HPM_P1;HPM_P2
2022/08/29 00:05:20;;;;;;;6.45;5.22;;;;;;;16.10;100.00;97828.53;18237005;32;20089;-58
2022/08/29 00:15:26;;;;;;;7.57;4.75;;;;;;;16.00;100.00;97829.53;18237110;32;20107;-59
2022/08/29 00:25:30;;;;;;;5.93;4.60;;;;;;;15.89;100.00;97837.09;18236658;32;20366;-59
2022/08/29 00:35:36;;;;;;;6.57;4.60;;;;;;;15.81;100.00;97835.06;18235761;32;20400;-59
2022/08/29 00:45:49;;;;;;;7.15;5.25;;;;;;;15.73;100.00;97836.56;18039372;32;20127;-59
2022/08/29 00:55:52;;;;;;;5.60;4.95;;;;;;;15.65;100.00;97829.06;18039074;32;20087;-58
2022/08/29 01:05:54;;;;;;;5.90;4.90;;;;;;;15.58;100.00;97834.91;17915621;33;20460;-59
2022/08/29 01:15:57;;;;;;;4.90;4.40;;;;;;;15.51;100.00;97833.66;17946161;32;20120;-59
2022/08/29 01:26:02;;;;;;;7.33;4.20;;;;;;;15.41;100.00;97832.69;17963996;33;20384;-59
2022/08/29 01:36:06;;;;;;;8.45;5.70;;;;;;;15.34;100.00;97840.47;17993824;32;20070;-58
2022/08/29 01:46:11;;;;;;;9.90;5.32;;;;;;;15.30;100.00;97844.87;18097845;32;20079;-59
2022/08/29 01:56:21;;;;;;;5.22;4.47;;;;;;;15.20;100.00;97851.31;18205397;32;20446;-58
2022/08/29 02:06:25;;;;;;;8.45;4.97;;;;;;;15.12;100.00;97848.44;18217959;32;20366;-59
2022/08/29 02:16:28;;;;;;;5.55;4.70;;;;;;;15.00;100.00;97852.41;18097187;32;20102;-59
2022/08/29 02:26:31;;;;;;;5.60;4.80;;;;;;;14.94;100.00;97844.59;18096856;32;20071;-59
2022/08/29 02:36:35;;;;;;;4.62;3.97;;;;;;;14.87;100.00;97853.97;18084179;32;20174;-59
2022/08/29 02:46:37;;;;;;;4.63;4.00;;;;;;;14.77;100.00;97859.53;18202620;32;20084;-59
2022/08/29 02:56:40;;;;;;;5.37;4.50;;;;;;;14.73;100.00;97855.78;18237659;32;20062;-58
2022/08/29 03:06:43;;;;;;;6.28;4.45;;;;;;;14.65;100.00;97854.53;18239763;32;20479;-59
2022/08/29 03:16:45;;;;;;;4.70;4.20;;;;;;;14.55;100.00;97854.63;18167730;32;20394;-59
2022/08/29 03:26:48;;;;;;;5.47;4.50;;;;;;;14.43;100.00;97860.50;18167348;32;20097;-61
2022/08/29 03:36:59;;;;;;;6.15;4.78;;;;;;;14.39;100.00;97846.66;18167454;32;20078;-61
2022/08/29 03:47:01;;;;;;;7.17;4.47;;;;;;;14.29;100.00;97843.22;18224166;32;20110;-62
2022/08/29 03:57:05;;;;;;;4.68;4.28;;;;;;;14.21;100.00;97833.78;18103410;32;20075;-62
2022/08/29 04:07:11;;;;;;;;;;;;;;;14.14;100.00;97842.31;18102983;32;20074;-61
2022/08/29 04:17:14;;;;;;;7.85;4.90;;;;;;;14.07;100.00;97841.84;18102963;32;20035;-61
2022/08/29 04:27:16;;;;;;;6.18;4.37;;;;;;;13.99;100.00;97846.03;18110062;32;20114;-62
2022/08/29 04:37:18;;;;;;;5.32;4.57;;;;;;;13.98;100.00;97865.34;18236084;32;20386;-62
2022/08/29 04:47:21;;;;;;;9.68;5.28;;;;;;;13.92;100.00;97874.63;18222114;32;20431;-61
2022/08/29 04:57:23;;;;;;;6.72;4.90;;;;;;;13.89;100.00;97885.00;18235308;32;20081;-61
2022/08/29 05:07:26;;;;;;;6.43;4.80;;;;;;;13.89;100.00;97895.88;18234586;32;20074;-62
2022/08/29 05:17:29;;;;;;;6.47;5.00;;;;;;;13.89;100.00;97911.34;18220837;32;20050;-61
2022/08/29 05:27:31;;;;;;;5.37;4.07;;;;;;;13.92;100.00;97910.75;18220485;32;20450;-61
2022/08/29 05:37:36;;;;;;;4.90;4.40;;;;;;;14.02;100.00;97915.31;18233472;32;20058;-61
2022/08/29 05:47:41;;;;;;;5.43;4.60;;;;;;;14.22;100.00;97928.72;18233011;32;20058;-62
2022/08/29 05:57:48;;;;;;;6.00;5.03;;;;;;;14.55;100.00;97934.34;18232350;32;20058;-62
2022/08/29 06:07:53;;;;;;;6.95;5.62;;;;;;;14.94;100.00;97948.06;18206199;32;20073;-62
2022/08/29 06:17:56;;;;;;;6.00;4.80;;;;;;;15.33;100.00;97968.81;18218234;32;20450;-62
2022/08/29 06:28:01;;;;;;;5.28;4.45;;;;;;;15.72;100.00;97971.22;18235101;32;20066;-62
2022/08/29 06:38:05;;;;;;;6.93;5.47;;;;;;;16.19;100.00;97979.50;18227867;32;20062;-62
2022/08/29 06:48:24;;;;;;;5.90;4.28;;;;;;;16.62;100.00;97975.72;18227752;32;20072;-62
2022/08/29 06:58:34;;;;;;;5.95;4.35;;;;;;;17.10;100.00;97983.56;18106412;32;20083;-62
2022/08/29 07:08:45;;;;;;;6.55;4.60;;;;;;;17.56;100.00;97986.41;18069217;32;20158;-62
2022/08/29 07:18:58;;;;;;;6.75;4.65;;;;;;;17.93;97.73;97981.75;18105792;32;20127;-64
2022/08/29 07:29:16;;;;;;;6.75;4.68;;;;;;;18.24;95.10;97979.06;17993338;32;20128;-63
2022/08/29 07:39:55;;;;;;;;;;;;;;;;;;;;;
2022/08/29 07:50:30;;;;;;;7.35;5.72;;;;;;;19.01;88.73;97978.12;18042470;32;20076;-62
2022/08/29 08:00:35;;;;;;;7.78;5.12;;;;;;;19.56;86.94;97983.06;18061869;32;20070;-60
2022/08/29 08:10:50;;;;;;;9.05;5.90;;;;;;;20.08;84.70;98003.44;18205219;32;20038;-60
2022/08/29 08:20:58;;;;;;;7.95;5.90;;;;;;;20.54;81.02;97990.09;18236781;32;20050;-61
2022/08/29 08:31:08;;;;;;;8.35;5.70;;;;;;;21.18;78.50;97994.69;18164583;32;20070;-60
2022/08/29 08:42:11;;;;;;;6.80;5.97;;;;;;;21.60;77.88;97994.78;18151433;32;20494;-60
2022/08/29 08:53:06;;;;;;;8.07;6.03;;;;;;;21.80;76.16;97995.09;18148528;32;20070;-60
2022/08/29 09:03:36;;;;;;;7.75;6.07;;;;;;;22.39;74.34;98004.31;18189490;32;20118;-61
2022/08/29 09:14:13;;;;;;;6.30;5.10;;;;;;;22.97;72.19;97990.53;18234610;32;20062;-60
2022/08/29 09:25:35;;;;;;;6.50;5.27;;;;;;;23.21;72.40;97992.47;18222228;32;20562;-61
2022/08/29 09:36:31;;;;;;;5.90;4.40;;;;;;;23.56;66.94;97983.72;18233538;32;20066;-61
2022/08/29 09:47:27;;;;;;;6.12;4.57;;;;;;;23.81;68.29;97989.97;18220017;32;20062;-60
2022/08/29 09:57:49;;;;;;;8.05;5.25;;;;;;;24.23;66.57;97986.03;18228742;32;20392;-61
2022/08/29 10:08:02;;;;;;;5.60;5.00;;;;;;;24.53;63.94;97975.38;18217768;32;20046;-61
2022/08/29 10:18:59;;;;;;;4.97;4.47;;;;;;;24.91;65.80;97966.84;18231599;32;20414;-60
2022/08/29 10:29:39;;;;;;;4.03;3.47;;;;;;;25.12;59.48;97963.78;18231390;32;20055;-60
2022/08/29 10:40:12;;;;;;;7.65;4.57;;;;;;;25.11;63.04;97957.44;18230725;32;20430;-60
2022/08/29 10:50:50;;;;;;;6.03;4.62;;;;;;;25.62;60.65;97959.37;18205668;32;20110;-61
2022/08/29 11:01:20;;;;;;;5.43;4.75;;;;;;;25.97;59.55;97952.16;18229838;32;20088;-61
2022/08/29 11:11:48;;;;;;;6.32;4.25;;;;;;;26.02;58.75;97947.19;18230698;32;20050;-61
2022/08/29 11:22:12;;;;;;;5.05;4.10;;;;;;;26.61;58.21;97954.56;18239452;32;20487;-61
2022/08/29 11:32:59;;;;;;;3.92;3.53;;;;;;;27.01;58.60;97940.19;18239107;32;20126;-61
2022/08/29 11:43:15;;;;;;;5.95;4.18;;;;;;;27.25;53.32;97940.94;18238518;32;20062;-61
2022/08/29 11:53:35;;;;;;;4.37;3.65;;;;;;;27.52;54.21;97938.16;18238127;32;20450;-61
2022/08/29 12:03:43;;;;;;;5.97;3.87;;;;;;;28.15;55.66;97924.62;18237479;32;20091;-61
2022/08/29 12:13:59;;;;;;;4.12;3.47;;;;;;;28.39;51.83;97921.31;18237212;32;20054;-61
2022/08/29 12:24:29;;;;;;;6.20;3.50;;;;;;;28.72;51.61;97914.06;18236493;32;20062;-61
2022/08/29 12:34:51;;;;;;;5.47;3.75;;;;;;;28.81;52.94;97904.59;18236453;32;20106;-61
2022/08/29 12:45:33;;;;;;;3.80;3.40;;;;;;;29.55;43.07;97902.66;18223175;32;20099;-61
2022/08/29 12:55:55;;;;;;;3.80;3.43;;;;;;;29.97;46.99;97886.50;18223049;32;20401;-61
2022/08/29 13:06:19;;;;;;;4.20;3.80;;;;;;;30.45;47.57;97896.56;18235106;32;20047;-61
2022/08/29 13:16:28;;;;;;;4.62;3.83;;;;;;;30.78;48.46;97881.41;18234595;32;20157;-60
2022/08/29 13:27:13;;;;;;;;;;;;;;;;;;;;;
2022/08/29 13:38:06;;;;;;;4.60;3.17;;;;;;;31.32;43.25;97858.19;18098221;32;20139;-61
2022/08/29 13:48:56;;;;;;;4.32;3.12;;;;;;;31.77;44.07;97855.59;18098586;32;20083;-61
2022/08/29 13:59:00;;;;;;;3.42;3.12;;;;;;;32.13;40.99;97849.00;18085484;32;20136;-61
2022/08/29 14:09:07;;;;;;;3.87;3.47;;;;;;;32.23;39.68;97829.34;18101665;32;20063;-61
2022/08/29 14:19:14;;;;;;;3.75;3.37;;;;;;;32.13;39.67;97837.81;18106459;32;20062;-61
2022/08/29 14:29:22;;;;;;;3.70;3.03;;;;;;;31.72;41.60;97830.84;18167044;32;20062;-61
2022/08/29 14:39:32;;;;;;;3.67;3.15;;;;;;;30.82;40.40;97811.59;18105628;32;20440;-60
2022/08/29 14:49:38;;;;;;;3.83;2.92;;;;;;;30.49;50.55;97796.91;18109188;32;20067;-61
2022/08/29 14:59:44;;;;;;;3.60;3.30;;;;;;;29.92;49.52;97793.69;18114941;32;20069;-61
2022/08/29 15:09:49;;;;;;;3.75;3.12;;;;;;;29.15;52.83;97793.03;18194424;32;20398;-60
2022/08/29 15:19:54;;;;;;;3.60;2.85;;;;;;;28.78;55.46;97788.47;18239676;32;20055;-61
2022/08/29 15:30:21;;;;;;;4.10;2.97;;;;;;;28.54;58.39;97779.56;18043050;32;20131;-60
2022/08/29 15:40:25;;;;;;;3.40;2.90;;;;;;;28.17;55.83;97767.37;18042938;32;20127;-60
2022/08/29 15:50:28;;;;;;;3.60;3.00;;;;;;;27.77;56.08;97751.53;18042387;32;20138;-60
2022/08/29 16:00:32;;;;;;;3.97;3.10;;;;;;;27.41;53.90;97738.09;18071346;32;20384;-60
2022/08/29 16:10:36;;;;;;;3.62;2.75;;;;;;;27.14;57.57;97718.72;18223859;32;20063;-60
2022/08/29 16:20:39;;;;;;;3.17;2.67;;;;;;;26.88;62.24;97723.19;18237765;32;20089;-60
2022/08/29 16:30:43;;;;;;;2.97;2.70;;;;;;;26.54;64.59;97727.88;18210880;32;20360;-60
2022/08/29 16:40:47;;;;;;;3.35;3.00;;;;;;;26.18;65.24;97724.59;18236241;32;20050;-60
2022/08/29 16:50:52;;;;;;;4.50;2.72;;;;;;;25.70;66.20;97722.97;18235866;32;20054;-61
2022/08/29 17:00:56;;;;;;;5.22;3.12;;;;;;;25.34;68.02;97729.87;18235312;32;20058;-60
2022/08/29 17:21:03;;;;;;;3.70;2.95;;;;;;;25.07;69.77;97729.72;18221331;32;20361;-60
2022/08/29 17:31:07;;;;;;;3.08;2.78;;;;;;;24.76;72.50;97730.66;18220262;32;20077;-60
2022/08/29 17:41:13;;;;;;;3.72;3.20;;;;;;;24.55;73.65;97730.97;18233526;32;20058;-60
2022/08/29 17:51:18;;;;;;;3.95;3.22;;;;;;;24.13;73.91;97733.22;18233210;32;20065;-60
2022/08/29 18:01:24;;;;;;;2.95;2.65;;;;;;;23.67;75.19;97749.38;18232557;32;20062;-60
2022/08/29 18:11:37;;;;;;;2.87;2.37;;;;;;;23.14;76.69;97744.81;18231961;32;20055;-60
2022/08/29 18:21:43;;;;;;;2.97;2.67;;;;;;;22.71;76.90;97753.78;18221764;32;20051;-61
2022/08/29 18:31:46;;;;;;;3.37;3.08;;;;;;;22.33;77.70;97753.81;18237829;32;20061;-60
2022/08/29 18:41:50;;;;;;;5.25;2.90;;;;;;;21.94;78.59;97750.63;18251128;32;20081;-60
2022/08/29 18:51:53;;;;;;;3.50;2.78;;;;;;;21.67;81.29;97757.59;18251075;32;20071;-60
2022/08/29 19:01:56;;;;;;;3.75;3.35;;;;;;;21.39;82.50;97777.44;18250433;32;20126;-60
2022/08/29 19:11:59;;;;;;;4.78;3.62;;;;;;;21.15;83.20;97781.69;18174124;32;20067;-60
2022/08/29 19:22:02;;;;;;;3.87;3.42;;;;;;;20.90;84.27;97797.28;18103493;32;20085;-60
2022/08/29 19:32:06;;;;;;;;;;;;;;;20.65;85.41;97790.78;18102516;32;20148;-60
2022/08/29 19:42:08;;;;;;;5.80;4.00;;;;;;;20.43;86.51;97791.88;18105006;32;19979;-60
2022/08/29 19:52:17;;;;;;;6.78;4.37;;;;;;;20.20;87.29;97803.16;18162124;32;20055;-60
2022/08/29 20:02:20;;;;;;;6.53;5.17;;;;;;;19.99;88.50;97803.06;18174248;32;20103;-60
2022/08/29 20:12:23;;;;;;;6.27;4.93;;;;;;;19.79;89.69;97818.31;18152568;32;20171;-60
2022/08/29 20:22:28;;;;;;;6.82;5.37;;;;;;;19.59;90.47;97820.59;18152329;32;20059;-60
2022/08/29 20:32:31;;;;;;;7.15;5.65;;;;;;;19.41;91.19;97824.50;18152749;32;20121;-60
2022/08/29 20:42:33;;;;;;;5.93;5.07;;;;;;;19.26;92.04;97814.84;18140452;32;20386;-60
2022/08/29 20:52:36;;;;;;;7.00;5.73;;;;;;;19.09;92.88;97823.84;18172908;32;20055;-60
2022/08/29 21:13:01;;;;;;;8.68;7.18;;;;;;;18.77;94.37;97826.72;18224079;32;20042;-60
2022/08/29 21:23:06;;;;;;;7.33;5.43;;;;;;;18.62;94.92;97833.47;18221059;32;20073;-60
2022/08/29 21:33:14;;;;;;;7.78;6.03;;;;;;;18.46;95.37;97829.56;18220896;32;20165;-60
2022/08/29 21:43:18;;;;;;;11.50;8.43;;;;;;;18.33;96.46;97836.75;18233524;32;20117;-60
2022/08/29 21:53:21;;;;;;;10.07;6.18;;;;;;;18.22;97.27;97844.44;18219693;32;20095;-59
2022/08/29 22:03:24;;;;;;;8.23;5.97;;;;;;;18.08;97.34;97838.28;18231832;32;20100;-60
2022/08/29 22:13:26;;;;;;;5.80;5.12;;;;;;;17.97;97.86;97845.16;18218522;32;20094;-60
2022/08/29 22:23:29;;;;;;;8.13;4.75;;;;;;;17.89;98.60;97841.22;18217737;32;20110;-60
2022/08/29 22:33:32;;;;;;;7.45;4.80;;;;;;;17.76;99.37;97842.88;18231140;32;20071;-60
2022/08/29 22:43:35;;;;;;;7.18;4.78;;;;;;;17.65;99.54;97852.47;18230747;32;20122;-60
2022/08/29 22:53:37;;;;;;;5.33;4.83;;;;;;;17.56;100.00;97861.44;18230357;32;20082;-60
2022/08/29 23:03:40;;;;;;;7.25;5.20;;;;;;;17.49;100.00;97861.06;18216043;32;20066;-60
2022/08/29 23:13:44;;;;;;;5.30;4.60;;;;;;;17.38;100.00;97870.62;18237622;32;20423;-60
2022/08/29 23:23:47;;;;;;;6.35;4.87;;;;;;;17.32;100.00;97871.88;18225887;32;20088;-60
2022/08/29 23:33:50;;;;;;;8.13;5.15;;;;;;;17.22;100.00;97890.09;18043252;32;20093;-60
2022/08/29 23:43:53;;;;;;;8.13;5.50;;;;;;;17.12;100.00;97895.81;18043395;32;20547;-60
2022/08/29 23:53:56;;;;;;;6.87;4.97;;;;;;;17.06;100.00;97889.66;18042935;32;20498;-60
